Anne Sibum — C4YC2 — position and weather

sailwx.info

Track history (hours):
 
Tides and Currents Weather Stations Pressure Air Temp Water Temp Dewpoint Dewpoint Depression Visibility Wind Speed Wind Dir Waves Ship Positions

Anne Sibum

Last reported at 2018-Feb-18 03:29 UTC. Time now 2018-Feb-18 03:37 UTC.
Position N 53°28' W 003°01'.

Length 151 m; draft 7.3 m.

Type: Ship (hazmat cat A). MMSI: 209322000.

Date/timePositionNaut miles runAvg speedWind from/ knotsBaromVisibWave heightAir tempDewpointWater temp
2018-Feb-18 03:29N 53°28' W 003°01'0 0.5
2018-Feb-18 03:00N 53°27' W 003°01'0 0.7
2018-Feb-18 02:30N 53°27' W 003°01'0 0.2
2018-Feb-18 02:00N 53°27' W 003°01'1 1.1
2018-Feb-18 01:30N 53°27' W 003°02'3 6.7
2018-Feb-18 01:00N 53°30' W 003°06'4 7.6
2018-Feb-18 00:30N 53°31' W 003°11'5 9.8
2018-Feb-18 00:00N 53°31' W 003°19'510.4
2018-Feb-17 23:29N 53°31' W 003°29'612.2
2018-Feb-17 23:00N 53°31' W 003°39'612.7
2018-Feb-17 22:30N 53°33' W 003°49'5415.2
2018-Feb-17 18:56N 54°08' W 004°59'916.4
2018-Feb-17 18:23N 54°16' W 005°06'616.2
2018-Feb-17 18:00N 54°21' W 005°11'816.0
2018-Feb-17 17:31N 54°29' W 005°17'815.2
2018-Feb-17 17:00N 54°36' W 005°22'815.0
2018-Feb-17 16:30N 54°42' W 005°28'815.1
2018-Feb-17 16:00N 54°42' W 005°41'611.7
2018-Feb-17 15:30N 54°40' W 005°51'2 0.1
2018-Feb-16 07:49N 54°38' W 005°53'1 2.4
2018-Feb-16 07:13N 54°39' W 005°52'2 9.4
2018-Feb-16 07:00N 54°41' W 005°49'510.4
2018-Feb-16 06:30N 54°43' W 005°41'4 7.5
2018-Feb-16 06:00N 54°43' W 005°35'5 9.2
2018-Feb-16 05:30N 54°41' W 005°27'612.9
2018-Feb-16 05:00N 54°35' W 005°23'714.2
2018-Feb-16 04:30N 54°28' W 005°20'713.7
2018-Feb-16 04:01N 54°21' W 005°19'815.1
2018-Feb-16 03:30N 54°14' W 005°21'714.9
2018-Feb-16 03:00N 54°07' W 005°22'7113.8
2018-Feb-15 21:51N 52°56' W 005°34'513.7
2018-Feb-15 21:31N 52°51' W 005°35'3415.5
2018-Feb-15 19:20N 52°17' W 005°41'616.9
2018-Feb-15 18:59N 52°12' W 005°42'3513.0
2018-Feb-15 16:18N 51°37' W 005°37'311.7
2018-Feb-15 16:00N 51°36' W 005°32'611.6
2018-Feb-15 15:30N 51°34' W 005°23'611.5
2018-Feb-15 15:00N 51°33' W 005°14'611.2
2018-Feb-15 14:30N 51°31' W 005°05'611.1
2018-Feb-15 14:00N 51°29' W 004°57'611.5
2018-Feb-15 13:30N 51°28' W 004°48'712.2
2018-Feb-15 12:57N 51°27' W 004°37'1913.6
2018-Feb-15 11:34N 51°22' W 004°08'115.2
2018-Feb-15 11:29N 51°22' W 004°06'2817.0
2018-Feb-15 09:48N 51°21' W 003°20'413.4
2018-Feb-15 09:29N 51°21' W 003°13'613.2
2018-Feb-15 09:00N 51°24' W 003°04'917.2
2018-Feb-15 08:30N 51°28' W 002°52'611.5
2018-Feb-15 08:00N 51°30' W 002°43'0 0.5
2018-Feb-15 07:31N 51°30' W 002°43'0 0.2
2018-Feb-15 07:01N 51°30' W 002°43'0 0.0
2018-Feb-15 06:24N 51°30' W 002°43'0 0.0
2018-Feb-15 06:00N 51°30' W 002°43'0 0.0
2018-Feb-15 05:30N 51°30' W 002°43'0 0.0
2018-Feb-15 05:00N 51°30' W 002°43'0 0.0
2018-Feb-15 04:30N 51°30' W 002°43'0 0.0
2018-Feb-15 04:00N 51°30' W 002°43'0 0.0
2018-Feb-15 03:30N 51°30' W 002°43'0 0.0
2018-Feb-15 03:00N 51°30' W 002°43'0 0.0
2018-Feb-15 02:30N 51°30' W 002°43'0 0.0
2018-Feb-15 02:00N 51°30' W 002°43'0 0.0
2018-Feb-15 01:30N 51°30' W 002°43'0 0.0
2018-Feb-15 01:00N 51°30' W 002°43'0 0.0
2018-Feb-15 00:30N 51°30' W 002°43'0 0.0
2018-Feb-15 00:00N 51°30' W 002°43'0 0.0
2018-Feb-14 23:30N 51°30' W 002°43'0 0.0
2018-Feb-14 23:00N 51°30' W 002°43'0 0.0
2018-Feb-14 22:30N 51°30' W 002°43'0 0.0
2018-Feb-14 22:00N 51°30' W 002°43'0 0.0
2018-Feb-14 21:30N 51°30' W 002°43'0 0.0
2018-Feb-14 21:00N 51°30' W 002°43'0 0.0
2018-Feb-14 20:30N 51°30' W 002°43'0 0.0
2018-Feb-14 20:00N 51°30' W 002°43'0 0.0
2018-Feb-14 19:30N 51°30' W 002°43'0 0.0
2018-Feb-14 19:00N 51°30' W 002°43'0 0.3
2018-Feb-14 18:30N 51°30' W 002°43'0 0.4
2018-Feb-14 18:00N 51°30' W 002°44'1 1.1
2018-Feb-14 17:30N 51°30' W 002°44'3 6.3
2018-Feb-14 17:00N 51°29' W 002°48'612.9
2018-Feb-14 16:30N 51°27' W 002°58'1115.8
2018-Feb-14 15:49N 51°21' W 003°13'410.9
2018-Feb-14 15:29N 51°21' W 003°19'2515.2
2018-Feb-14 13:52N 51°18' W 003°58'917.2
2018-Feb-14 13:22N 51°17' W 004°11'916.5
2018-Feb-14 12:50N 51°12' W 004°24'516.2
2018-Feb-14 12:31N 51°09' W 004°30'815.8
2018-Feb-14 12:00N 51°04' W 004°39'815.4
2018-Feb-14 11:30N 50°58' W 004°48'815.1
2018-Feb-14 11:01N 50°53' W 004°57'714.8
2018-Feb-14 10:31N 50°48' W 005°06'714.7
2018-Feb-14 10:01N 50°43' W 005°14'714.6
2018-Feb-14 09:31N 50°38' W 005°23'714.7
2018-Feb-14 09:01N 50°33' W 005°31'714.5
2018-Feb-14 08:30N 50°28' W 005°40'714.4
2018-Feb-14 08:01N 50°23' W 005°48'813.8
2018-Feb-14 07:27N 50°17' W 005°54'2511.8
2018-Feb-14 05:21N 49°57' W 005°31'1613.0
2018-Feb-14 04:08N 49°56' W 005°07'312.2
2018-Feb-14 03:54N 49°56' W 005°02'612.5
2018-Feb-14 03:24N 49°57' W 004°53'512.7
2018-Feb-14 03:01N 49°58' W 004°45'714.1
2018-Feb-14 02:31N 49°60' W 004°35'714.4
2018-Feb-14 02:00N 50°01' W 004°23'714.9
2018-Feb-14 01:31N 50°03' W 004°12'815.3
2018-Feb-14 01:01N 50°04' W 004°01'815.9
2018-Feb-14 00:30N 50°05' W 003°48'816.2
2018-Feb-14 00:01N 50°06' W 003°36'816.2
2018-Feb-13 23:30N 50°08' W 003°23'816.4
2018-Feb-13 23:00N 50°09' W 003°11'816.1
2018-Feb-13 22:30N 50°11' W 002°58'815.4
2018-Feb-13 22:00N 50°12' W 002°46'714.6
2018-Feb-13 21:30N 50°13' W 002°35'713.5
2018-Feb-13 21:00N 50°14' W 002°25'1312.1
2018-Feb-13 19:53N 50°17' W 002°04'6112.2
2018-Feb-13 14:56N 50°28' W 000°30'715.3
2018-Feb-13 14:30N 50°29' W 000°20'715.0
2018-Feb-13 14:00N 50°31' W 000°09'714.4
2018-Feb-13 13:30N 50°32' E 000°02'714.4
2018-Feb-13 13:00N 50°35' E 000°13'714.3
2018-Feb-13 12:30N 50°37' E 000°24'713.9
2018-Feb-13 12:00N 50°39' E 000°34'713.1
2018-Feb-13 11:30N 50°42' E 000°43'612.6
2018-Feb-13 11:00N 50°45' E 000°52'612.0
2018-Feb-13 10:30N 50°49' E 000°59'712.2
2018-Feb-13 09:56N 50°54' E 001°07'512.5
2018-Feb-13 09:30N 50°57' E 001°14'612.4
2018-Feb-13 08:59N 51°01' E 001°22'612.7
2018-Feb-13 08:30N 51°05' E 001°29'713.7
2018-Feb-13 08:00N 51°10' E 001°37'714.7
2018-Feb-13 07:30N 51°15' E 001°46'815.7
2018-Feb-13 07:00N 51°21' E 001°53'816.1
2018-Feb-13 06:30N 51°28' E 001°60'815.9
2018-Feb-13 06:00N 51°34' E 002°09'815.9
2018-Feb-13 05:30N 51°40' E 002°17'915.5
2018-Feb-13 04:55N 51°46' E 002°27'815.2
2018-Feb-13 04:22N 51°52' E 002°37'714.9
2018-Feb-13 03:54N 51°57' E 002°44'3114.3
2018-Feb-13 01:45N 52°04' E 003°33'414.7
2018-Feb-13 01:27N 52°04' E 003°40'714.7
2018-Feb-13 01:00N 52°03' E 003°51'510.3
2018-Feb-13 00:30N 52°01' E 003°59'611.3
2018-Feb-13 00:00N 51°57' E 004°05'1 1.0
2018-Feb-12 23:30N 51°57' E 004°04'0 0.0
2018-Feb-12 22:57N 51°57' E 004°04'0 0.0
2018-Feb-12 22:30N 51°57' E 004°04'0 0.0
2018-Feb-12 22:00N 51°57' E 004°04'0 0.0
2018-Feb-12 21:27N 51°57' E 004°04'0 0.0
2018-Feb-12 21:00N 51°57' E 004°04'0 0.0
2018-Feb-12 20:30N 51°57' E 004°04'0 0.0
2018-Feb-12 20:00N 51°57' E 004°04'0 0.0
2018-Feb-12 19:30N 51°57' E 004°04'0 0.0
2018-Feb-12 19:00N 51°57' E 004°04'0 0.1
2018-Feb-12 18:30N 51°57' E 004°04'0 0.0
2018-Feb-12 18:00N 51°57' E 004°04'0 0.1
2018-Feb-12 17:30N 51°57' E 004°04'0 0.0
2018-Feb-12 16:54N 51°57' E 004°04'0 0.0
2018-Feb-12 16:30N 51°57' E 004°04'0 0.0
2018-Feb-12 16:00N 51°57' E 004°04'0 0.0
2018-Feb-12 15:30N 51°57' E 004°04'0 0.0
2018-Feb-12 15:00N 51°57' E 004°04'0 0.0
2018-Feb-12 14:30N 51°57' E 004°04'0 0.0
2018-Feb-12 14:00N 51°57' E 004°04'0 0.0
2018-Feb-12 13:30N 51°57' E 004°04'0 0.0
2018-Feb-12 13:00N 51°57' E 004°04'0 0.0
2018-Feb-12 12:30N 51°57' E 004°04'1 1.3
2018-Feb-12 12:00N 51°57' E 004°05'1 1.8
2018-Feb-12 11:28N 51°58' E 004°03'0 0.0
2018-Feb-12 10:55N 51°58' E 004°03'0 0.1
2018-Feb-12 10:25N 51°58' E 004°03'0 0.1
2018-Feb-12 09:58N 51°58' E 004°03'0 0.0
2018-Feb-12 09:28N 51°58' E 004°03'0 0.0
2018-Feb-12 08:58N 51°58' E 004°03'0 0.0
2018-Feb-12 08:28N 51°58' E 004°03'0 0.0
2018-Feb-12 08:00N 51°58' E 004°03'1 2.4
2018-Feb-12 07:30N 51°58' E 004°02'0 0.2
2018-Feb-12 06:59N 51°59' E 004°02'0 0.0
2018-Feb-12 06:29N 51°59' E 004°02'0 0.0
2018-Feb-12 05:59N 51°59' E 004°02'0 0.0
2018-Feb-12 05:29N 51°59' E 004°02'0 0.0
2018-Feb-12 04:59N 51°59' E 004°02'0 0.0
2018-Feb-12 04:29N 51°59' E 004°02'0 0.0
2018-Feb-12 03:59N 51°59' E 004°02'0 0.0
2018-Feb-12 03:29N 51°59' E 004°02'0 0.0
2018-Feb-12 02:59N 51°59' E 004°02'0 0.0
2018-Feb-12 02:26N 51°59' E 004°02'0 0.0
2018-Feb-12 01:59N 51°59' E 004°02'0 0.0
2018-Feb-12 01:29N 51°59' E 004°02'0 0.0
2018-Feb-12 00:56N 51°59' E 004°02'0 0.0
2018-Feb-12 00:29N 51°59' E 004°02'0 0.0
2018-Feb-11 23:59N 51°59' E 004°02'0 0.0
2018-Feb-11 23:29N 51°59' E 004°02'0 0.0
2018-Feb-11 22:59N 51°59' E 004°02'0 0.0
2018-Feb-11 22:29N 51°59' E 004°02'0 0.0
2018-Feb-11 21:59N 51°59' E 004°02'0 0.1
2018-Feb-11 21:30N 51°59' E 004°02'1 2.3
2018-Feb-11 21:00N 51°57' E 004°03'0 0.0
2018-Feb-11 20:30N 51°57' E 004°03'0 0.0
2018-Feb-11 19:57N 51°57' E 004°03'0 0.0
2018-Feb-11 19:30N 51°57' E 004°03'0 0.0
2018-Feb-11 18:59N 51°57' E 004°03'0 0.0
2018-Feb-11 18:29N 51°57' E 004°03'0 0.0
2018-Feb-11 18:01N 51°57' E 004°03'0 0.0
2018-Feb-11 17:28N 51°57' E 004°03'0 0.0
2018-Feb-11 16:58N 51°57' E 004°03'0 0.0
2018-Feb-11 16:25N 51°57' E 004°03'0 0.0
2018-Feb-11 16:00N 51°57' E 004°03'0 0.7
2018-Feb-11 15:30N 51°58' E 004°03'2 3.9
2018-Feb-11 15:00N 51°58' E 004°00'0 0.9
2018-Feb-11 14:29N 51°57' E 004°00'0 0.0
2018-Feb-11 13:59N 51°57' E 004°00'0 0.0
2018-Feb-11 13:29N 51°57' E 004°00'0 0.0
2018-Feb-11 12:56N 51°57' E 004°00'0 0.0
2018-Feb-11 12:29N 51°57' E 004°00'0 0.0
2018-Feb-11 11:59N 51°57' E 004°00'0 0.0
2018-Feb-11 11:26N 51°57' E 004°00'0 0.0
2018-Feb-11 10:59N 51°57' E 004°00'0 0.0
2018-Feb-11 10:29N 51°57' E 004°00'0 0.0
2018-Feb-11 09:53N 51°57' E 004°00'0 0.0
2018-Feb-11 09:29N 51°57' E 004°00'0 0.0
2018-Feb-11 08:56N 51°57' E 004°00'0 0.1
2018-Feb-11 08:30N 51°57' E 004°00'1 2.5
2018-Feb-11 08:00N 51°59' E 004°01'3 6.7
2018-Feb-11 07:30N 51°59' E 004°06'612.9
2018-Feb-11 07:01N 51°55' E 004°14'510.2
2018-Feb-11 06:31N 51°54' E 004°23'2 4.0
2018-Feb-11 06:01N 51°53' E 004°25'0 0.0
2018-Feb-11 05:29N 51°53' E 004°25'0 0.0
2018-Feb-11 04:59N 51°53' E 004°25'0 0.0
2018-Feb-11 04:29N 51°53' E 004°25'0 0.0
2018-Feb-11 03:59N 51°53' E 004°25'0 0.0
2018-Feb-11 03:29N 51°53' E 004°25'0 0.0
2018-Feb-11 02:59N 51°53' E 004°25'0 0.0
2018-Feb-11 02:29N 51°53' E 004°25'0 0.0
2018-Feb-11 01:59N 51°53' E 004°25'0 0.0
2018-Feb-11 01:29N 51°53' E 004°25'0 0.0
2018-Feb-11 00:59N 51°53' E 004°25'0 0.0
2018-Feb-11 00:29N 51°53' E 004°25'0 0.0
2018-Feb-10 23:59N 51°53' E 004°25'0 0.0
2018-Feb-10 23:29N 51°53' E 004°25'0 0.0
2018-Feb-10 22:59N 51°53' E 004°25'0 0.0
2018-Feb-10 22:29N 51°53' E 004°25'0 0.0
2018-Feb-10 21:59N 51°53' E 004°25'0 0.0
2018-Feb-10 21:29N 51°53' E 004°25'0 0.0
2018-Feb-10 20:59N 51°53' E 004°25'0 0.0
2018-Feb-10 20:29N 51°53' E 004°25'0 0.0
2018-Feb-10 19:59N 51°53' E 004°25'0 0.0
2018-Feb-10 19:29N 51°53' E 004°25'0 0.0
2018-Feb-10 18:56N 51°53' E 004°25'0 0.0
2018-Feb-10 18:29N 51°53' E 004°25'0 0.0
2018-Feb-10 17:58N 51°53' E 004°25'0 0.0
2018-Feb-10 17:28N 51°53' E 004°25'0 0.0
2018-Feb-10 16:58N 51°53' E 004°25'0 0.0
2018-Feb-10 16:28N 51°53' E 004°25'0 0.0
2018-Feb-10 15:58N 51°53' E 004°25'0 0.0
2018-Feb-10 15:28N 51°53' E 004°25'0 0.0
2018-Feb-10 14:58N 51°53' E 004°25'0 0.0
2018-Feb-10 14:25N 51°53' E 004°25'0 0.0
2018-Feb-10 13:58N 51°53' E 004°25'0 0.0
2018-Feb-10 13:25N 51°53' E 004°25'0 0.0
2018-Feb-10 12:58N 51°53' E 004°25'0 0.7
2018-Feb-10 12:30N 51°53' E 004°25'3 6.5
2018-Feb-10 12:00N 51°54' E 004°19'612.2
2018-Feb-10 11:31N 51°57' E 004°11'714.2
2018-Feb-10 11:00N 51°60' E 004°01'714.4
2018-Feb-10 10:30N 52°01' E 003°49'713.3
2018-Feb-10 09:58N 51°58' E 003°38'1914.4
2018-Feb-10 08:37N 51°52' E 003°08'214.2
2018-Feb-10 08:29N 51°51' E 003°06'2214.8
2018-Feb-10 06:58N 51°41' E 002°33'816.7
2018-Feb-10 06:30N 51°35' E 002°25'816.4
2018-Feb-10 06:01N 51°29' E 002°16'815.7
2018-Feb-10 05:30N 51°23' E 002°08'815.6
2018-Feb-10 05:01N 51°16' E 002°06'815.4
2018-Feb-10 04:31N 51°11' E 001°56'815.3
2018-Feb-10 04:01N 51°07' E 001°46'714.9
2018-Feb-10 03:31N 51°01' E 001°38'814.9
2018-Feb-10 03:00N 50°56' E 001°30'714.1
2018-Feb-10 02:30N 50°50' E 001°24'814.9
2018-Feb-10 01:59N 50°42' E 001°20'5415.4
2018-Feb-09 22:27N 50°19' E 000°03'5415.8
2018-Feb-09 19:01N 50°13' W 001°22'816.2
2018-Feb-09 18:31N 50°12' W 001°34'816.6
2018-Feb-09 18:01N 50°12' W 001°47'3517.4
2018-Feb-09 16:00N 50°09' W 002°41'1817.6
2018-Feb-09 15:00N 50°07' W 003°08'917.5
2018-Feb-09 14:31N 50°05' W 003°22'917.7
2018-Feb-09 14:00N 50°04' W 003°35'917.7
2018-Feb-09 13:30N 50°03' W 003°49'5117.0
2018-Feb-09 10:30N 49°55' W 005°07'14112.9
2018-Feb-08 23:30N 52°14' W 005°51'12616.8
2018-Feb-08 16:00N 54°19' W 005°20'1414.1
2018-Feb-08 15:00N 54°33' W 005°21'1212.2
2018-Feb-08 14:00N 54°43' W 005°33'  
Track history (hours):
 
Tides and Currents Weather Stations Pressure Air Temp Water Temp Dewpoint Dewpoint Depression Visibility Wind Speed Wind Dir Waves Ship Positions

Anne Sibum

Last reported at 2018-Feb-18 03:29 UTC. Time now 2018-Feb-18 03:37 UTC.
Position N 53°28' W 003°01'.

Length 151 m; draft 7.3 m.

Type: Ship (hazmat cat A). MMSI: 209322000.

Date/timePositionNaut miles runAvg speedWind from/ knotsBaromVisibWave heightAir tempDewpointWater temp
2018-Feb-18 03:29N 53°28' W 003°01'0 0.5
2018-Feb-18 03:00N 53°27' W 003°01'0 0.7
2018-Feb-18 02:30N 53°27' W 003°01'0 0.2
2018-Feb-18 02:00N 53°27' W 003°01'1 1.1
2018-Feb-18 01:30N 53°27' W 003°02'3 6.7
2018-Feb-18 01:00N 53°30' W 003°06'4 7.6
2018-Feb-18 00:30N 53°31' W 003°11'5 9.8
2018-Feb-18 00:00N 53°31' W 003°19'510.4
2018-Feb-17 23:29N 53°31' W 003°29'612.2
2018-Feb-17 23:00N 53°31' W 003°39'612.7
2018-Feb-17 22:30N 53°33' W 003°49'5415.2
2018-Feb-17 18:56N 54°08' W 004°59'916.4
2018-Feb-17 18:23N 54°16' W 005°06'616.2
2018-Feb-17 18:00N 54°21' W 005°11'816.0
2018-Feb-17 17:31N 54°29' W 005°17'815.2
2018-Feb-17 17:00N 54°36' W 005°22'815.0
2018-Feb-17 16:30N 54°42' W 005°28'815.1
2018-Feb-17 16:00N 54°42' W 005°41'611.7
2018-Feb-17 15:30N 54°40' W 005°51'2 0.1
2018-Feb-16 07:49N 54°38' W 005°53'1 2.4
2018-Feb-16 07:13N 54°39' W 005°52'2 9.4
2018-Feb-16 07:00N 54°41' W 005°49'510.4
2018-Feb-16 06:30N 54°43' W 005°41'4 7.5
2018-Feb-16 06:00N 54°43' W 005°35'5 9.2
2018-Feb-16 05:30N 54°41' W 005°27'612.9
2018-Feb-16 05:00N 54°35' W 005°23'714.2
2018-Feb-16 04:30N 54°28' W 005°20'713.7
2018-Feb-16 04:01N 54°21' W 005°19'815.1
2018-Feb-16 03:30N 54°14' W 005°21'714.9
2018-Feb-16 03:00N 54°07' W 005°22'7113.8
2018-Feb-15 21:51N 52°56' W 005°34'513.7
2018-Feb-15 21:31N 52°51' W 005°35'3415.5
2018-Feb-15 19:20N 52°17' W 005°41'616.9
2018-Feb-15 18:59N 52°12' W 005°42'3513.0
2018-Feb-15 16:18N 51°37' W 005°37'311.7
2018-Feb-15 16:00N 51°36' W 005°32'611.6
2018-Feb-15 15:30N 51°34' W 005°23'611.5
2018-Feb-15 15:00N 51°33' W 005°14'611.2
2018-Feb-15 14:30N 51°31' W 005°05'611.1
2018-Feb-15 14:00N 51°29' W 004°57'611.5
2018-Feb-15 13:30N 51°28' W 004°48'712.2
2018-Feb-15 12:57N 51°27' W 004°37'1913.6
2018-Feb-15 11:34N 51°22' W 004°08'115.2
2018-Feb-15 11:29N 51°22' W 004°06'2817.0
2018-Feb-15 09:48N 51°21' W 003°20'413.4
2018-Feb-15 09:29N 51°21' W 003°13'613.2
2018-Feb-15 09:00N 51°24' W 003°04'917.2
2018-Feb-15 08:30N 51°28' W 002°52'611.5
2018-Feb-15 08:00N 51°30' W 002°43'0 0.5
2018-Feb-15 07:31N 51°30' W 002°43'0 0.2
2018-Feb-15 07:01N 51°30' W 002°43'0 0.0
2018-Feb-15 06:24N 51°30' W 002°43'0 0.0
2018-Feb-15 06:00N 51°30' W 002°43'0 0.0
2018-Feb-15 05:30N 51°30' W 002°43'0 0.0
2018-Feb-15 05:00N 51°30' W 002°43'0 0.0
2018-Feb-15 04:30N 51°30' W 002°43'0 0.0
2018-Feb-15 04:00N 51°30' W 002°43'0 0.0
2018-Feb-15 03:30N 51°30' W 002°43'0 0.0
2018-Feb-15 03:00N 51°30' W 002°43'0 0.0
2018-Feb-15 02:30N 51°30' W 002°43'0 0.0
2018-Feb-15 02:00N 51°30' W 002°43'0 0.0
2018-Feb-15 01:30N 51°30' W 002°43'0 0.0
2018-Feb-15 01:00N 51°30' W 002°43'0 0.0
2018-Feb-15 00:30N 51°30' W 002°43'0 0.0
2018-Feb-15 00:00N 51°30' W 002°43'0 0.0
2018-Feb-14 23:30N 51°30' W 002°43'0 0.0
2018-Feb-14 23:00N 51°30' W 002°43'0 0.0
2018-Feb-14 22:30N 51°30' W 002°43'0 0.0
2018-Feb-14 22:00N 51°30' W 002°43'0 0.0
2018-Feb-14 21:30N 51°30' W 002°43'0 0.0
2018-Feb-14 21:00N 51°30' W 002°43'0 0.0
2018-Feb-14 20:30N 51°30' W 002°43'0 0.0
2018-Feb-14 20:00N 51°30' W 002°43'0 0.0
2018-Feb-14 19:30N 51°30' W 002°43'0 0.0
2018-Feb-14 19:00N 51°30' W 002°43'0 0.3
2018-Feb-14 18:30N 51°30' W 002°43'0 0.4
2018-Feb-14 18:00N 51°30' W 002°44'1 1.1
2018-Feb-14 17:30N 51°30' W 002°44'3 6.3
2018-Feb-14 17:00N 51°29' W 002°48'612.9
2018-Feb-14 16:30N 51°27' W 002°58'1115.8
2018-Feb-14 15:49N 51°21' W 003°13'410.9
2018-Feb-14 15:29N 51°21' W 003°19'2515.2
2018-Feb-14 13:52N 51°18' W 003°58'917.2
2018-Feb-14 13:22N 51°17' W 004°11'916.5
2018-Feb-14 12:50N 51°12' W 004°24'516.2
2018-Feb-14 12:31N 51°09' W 004°30'815.8
2018-Feb-14 12:00N 51°04' W 004°39'815.4
2018-Feb-14 11:30N 50°58' W 004°48'815.1
2018-Feb-14 11:01N 50°53' W 004°57'714.8
2018-Feb-14 10:31N 50°48' W 005°06'714.7
2018-Feb-14 10:01N 50°43' W 005°14'714.6
2018-Feb-14 09:31N 50°38' W 005°23'714.7
2018-Feb-14 09:01N 50°33' W 005°31'714.5
2018-Feb-14 08:30N 50°28' W 005°40'714.4
2018-Feb-14 08:01N 50°23' W 005°48'813.8
2018-Feb-14 07:27N 50°17' W 005°54'2511.8
2018-Feb-14 05:21N 49°57' W 005°31'1613.0
2018-Feb-14 04:08N 49°56' W 005°07'312.2
2018-Feb-14 03:54N 49°56' W 005°02'612.5
2018-Feb-14 03:24N 49°57' W 004°53'512.7
2018-Feb-14 03:01N 49°58' W 004°45'714.1
2018-Feb-14 02:31N 49°60' W 004°35'714.4
2018-Feb-14 02:00N 50°01' W 004°23'714.9
2018-Feb-14 01:31N 50°03' W 004°12'815.3
2018-Feb-14 01:01N 50°04' W 004°01'815.9
2018-Feb-14 00:30N 50°05' W 003°48'816.2
2018-Feb-14 00:01N 50°06' W 003°36'816.2
2018-Feb-13 23:30N 50°08' W 003°23'816.4
2018-Feb-13 23:00N 50°09' W 003°11'816.1
2018-Feb-13 22:30N 50°11' W 002°58'815.4
2018-Feb-13 22:00N 50°12' W 002°46'714.6
2018-Feb-13 21:30N 50°13' W 002°35'713.5
2018-Feb-13 21:00N 50°14' W 002°25'1312.1
2018-Feb-13 19:53N 50°17' W 002°04'6112.2
2018-Feb-13 14:56N 50°28' W 000°30'715.3
2018-Feb-13 14:30N 50°29' W 000°20'715.0
2018-Feb-13 14:00N 50°31' W 000°09'714.4
2018-Feb-13 13:30N 50°32' E 000°02'714.4
2018-Feb-13 13:00N 50°35' E 000°13'714.3
2018-Feb-13 12:30N 50°37' E 000°24'713.9
2018-Feb-13 12:00N 50°39' E 000°34'713.1
2018-Feb-13 11:30N 50°42' E 000°43'612.6
2018-Feb-13 11:00N 50°45' E 000°52'612.0
2018-Feb-13 10:30N 50°49' E 000°59'712.2
2018-Feb-13 09:56N 50°54' E 001°07'512.5
2018-Feb-13 09:30N 50°57' E 001°14'612.4
2018-Feb-13 08:59N 51°01' E 001°22'612.7
2018-Feb-13 08:30N 51°05' E 001°29'713.7
2018-Feb-13 08:00N 51°10' E 001°37'714.7
2018-Feb-13 07:30N 51°15' E 001°46'815.7
2018-Feb-13 07:00N 51°21' E 001°53'816.1
2018-Feb-13 06:30N 51°28' E 001°60'815.9
2018-Feb-13 06:00N 51°34' E 002°09'815.9
2018-Feb-13 05:30N 51°40' E 002°17'915.5
2018-Feb-13 04:55N 51°46' E 002°27'815.2
2018-Feb-13 04:22N 51°52' E 002°37'714.9
2018-Feb-13 03:54N 51°57' E 002°44'3114.3
2018-Feb-13 01:45N 52°04' E 003°33'414.7
2018-Feb-13 01:27N 52°04' E 003°40'714.7
2018-Feb-13 01:00N 52°03' E 003°51'510.3
2018-Feb-13 00:30N 52°01' E 003°59'611.3
2018-Feb-13 00:00N 51°57' E 004°05'1 1.0
2018-Feb-12 23:30N 51°57' E 004°04'0 0.0
2018-Feb-12 22:57N 51°57' E 004°04'0 0.0
2018-Feb-12 22:30N 51°57' E 004°04'0 0.0
2018-Feb-12 22:00N 51°57' E 004°04'0 0.0
2018-Feb-12 21:27N 51°57' E 004°04'0 0.0
2018-Feb-12 21:00N 51°57' E 004°04'0 0.0
2018-Feb-12 20:30N 51°57' E 004°04'0 0.0
2018-Feb-12 20:00N 51°57' E 004°04'0 0.0
2018-Feb-12 19:30N 51°57' E 004°04'0 0.0
2018-Feb-12 19:00N 51°57' E 004°04'0 0.1
2018-Feb-12 18:30N 51°57' E 004°04'0 0.0
2018-Feb-12 18:00N 51°57' E 004°04'0 0.1
2018-Feb-12 17:30N 51°57' E 004°04'0 0.0
2018-Feb-12 16:54N 51°57' E 004°04'0 0.0
2018-Feb-12 16:30N 51°57' E 004°04'0 0.0
2018-Feb-12 16:00N 51°57' E 004°04'0 0.0
2018-Feb-12 15:30N 51°57' E 004°04'0 0.0
2018-Feb-12 15:00N 51°57' E 004°04'0 0.0
2018-Feb-12 14:30N 51°57' E 004°04'0 0.0
2018-Feb-12 14:00N 51°57' E 004°04'0 0.0
2018-Feb-12 13:30N 51°57' E 004°04'0 0.0
2018-Feb-12 13:00N 51°57' E 004°04'0 0.0
2018-Feb-12 12:30N 51°57' E 004°04'1 1.3
2018-Feb-12 12:00N 51°57' E 004°05'1 1.8
2018-Feb-12 11:28N 51°58' E 004°03'0 0.0
2018-Feb-12 10:55N 51°58' E 004°03'0 0.1
2018-Feb-12 10:25N 51°58' E 004°03'0 0.1
2018-Feb-12 09:58N 51°58' E 004°03'0 0.0
2018-Feb-12 09:28N 51°58' E 004°03'0 0.0
2018-Feb-12 08:58N 51°58' E 004°03'0 0.0
2018-Feb-12 08:28N 51°58' E 004°03'0 0.0
2018-Feb-12 08:00N 51°58' E 004°03'1 2.4
2018-Feb-12 07:30N 51°58' E 004°02'0 0.2
2018-Feb-12 06:59N 51°59' E 004°02'0 0.0
2018-Feb-12 06:29N 51°59' E 004°02'0 0.0
2018-Feb-12 05:59N 51°59' E 004°02'0 0.0
2018-Feb-12 05:29N 51°59' E 004°02'0 0.0
2018-Feb-12 04:59N 51°59' E 004°02'0 0.0
2018-Feb-12 04:29N 51°59' E 004°02'0 0.0
2018-Feb-12 03:59N 51°59' E 004°02'0 0.0
2018-Feb-12 03:29N 51°59' E 004°02'0 0.0
2018-Feb-12 02:59N 51°59' E 004°02'0 0.0
2018-Feb-12 02:26N 51°59' E 004°02'0 0.0
2018-Feb-12 01:59N 51°59' E 004°02'0 0.0
2018-Feb-12 01:29N 51°59' E 004°02'0 0.0
2018-Feb-12 00:56N 51°59' E 004°02'0 0.0
2018-Feb-12 00:29N 51°59' E 004°02'0 0.0
2018-Feb-11 23:59N 51°59' E 004°02'0 0.0
2018-Feb-11 23:29N 51°59' E 004°02'0 0.0
2018-Feb-11 22:59N 51°59' E 004°02'0 0.0
2018-Feb-11 22:29N 51°59' E 004°02'0 0.0
2018-Feb-11 21:59N 51°59' E 004°02'0 0.1
2018-Feb-11 21:30N 51°59' E 004°02'1 2.3
2018-Feb-11 21:00N 51°57' E 004°03'0 0.0
2018-Feb-11 20:30N 51°57' E 004°03'0 0.0
2018-Feb-11 19:57N 51°57' E 004°03'0 0.0
2018-Feb-11 19:30N 51°57' E 004°03'0 0.0
2018-Feb-11 18:59N 51°57' E 004°03'0 0.0
2018-Feb-11 18:29N 51°57' E 004°03'0 0.0
2018-Feb-11 18:01N 51°57' E 004°03'0 0.0
2018-Feb-11 17:28N 51°57' E 004°03'0 0.0
2018-Feb-11 16:58N 51°57' E 004°03'0 0.0
2018-Feb-11 16:25N 51°57' E 004°03'0 0.0
2018-Feb-11 16:00N 51°57' E 004°03'0 0.7
2018-Feb-11 15:30N 51°58' E 004°03'2 3.9
2018-Feb-11 15:00N 51°58' E 004°00'0 0.9
2018-Feb-11 14:29N 51°57' E 004°00'0 0.0
2018-Feb-11 13:59N 51°57' E 004°00'0 0.0
2018-Feb-11 13:29N 51°57' E 004°00'0 0.0
2018-Feb-11 12:56N 51°57' E 004°00'0 0.0
2018-Feb-11 12:29N 51°57' E 004°00'0 0.0
2018-Feb-11 11:59N 51°57' E 004°00'0 0.0
2018-Feb-11 11:26N 51°57' E 004°00'0 0.0
2018-Feb-11 10:59N 51°57' E 004°00'0 0.0
2018-Feb-11 10:29N 51°57' E 004°00'0 0.0
2018-Feb-11 09:53N 51°57' E 004°00'0 0.0
2018-Feb-11 09:29N 51°57' E 004°00'0 0.0
2018-Feb-11 08:56N 51°57' E 004°00'0 0.1
2018-Feb-11 08:30N 51°57' E 004°00'1 2.5
2018-Feb-11 08:00N 51°59' E 004°01'3 6.7
2018-Feb-11 07:30N 51°59' E 004°06'612.9
2018-Feb-11 07:01N 51°55' E 004°14'510.2
2018-Feb-11 06:31N 51°54' E 004°23'2 4.0
2018-Feb-11 06:01N 51°53' E 004°25'0 0.0
2018-Feb-11 05:29N 51°53' E 004°25'0 0.0
2018-Feb-11 04:59N 51°53' E 004°25'0 0.0
2018-Feb-11 04:29N 51°53' E 004°25'0 0.0
2018-Feb-11 03:59N 51°53' E 004°25'0 0.0
2018-Feb-11 03:29N 51°53' E 004°25'0 0.0
2018-Feb-11 02:59N 51°53' E 004°25'0 0.0
2018-Feb-11 02:29N 51°53' E 004°25'0 0.0
2018-Feb-11 01:59N 51°53' E 004°25'0 0.0
2018-Feb-11 01:29N 51°53' E 004°25'0 0.0
2018-Feb-11 00:59N 51°53' E 004°25'0 0.0
2018-Feb-11 00:29N 51°53' E 004°25'0 0.0
2018-Feb-10 23:59N 51°53' E 004°25'0 0.0
2018-Feb-10 23:29N 51°53' E 004°25'0 0.0
2018-Feb-10 22:59N 51°53' E 004°25'0 0.0
2018-Feb-10 22:29N 51°53' E 004°25'0 0.0
2018-Feb-10 21:59N 51°53' E 004°25'0 0.0
2018-Feb-10 21:29N 51°53' E 004°25'0 0.0
2018-Feb-10 20:59N 51°53' E 004°25'0 0.0
2018-Feb-10 20:29N 51°53' E 004°25'0 0.0
2018-Feb-10 19:59N 51°53' E 004°25'0 0.0
2018-Feb-10 19:29N 51°53' E 004°25'0 0.0
2018-Feb-10 18:56N 51°53' E 004°25'0 0.0
2018-Feb-10 18:29N 51°53' E 004°25'0 0.0
2018-Feb-10 17:58N 51°53' E 004°25'0 0.0
2018-Feb-10 17:28N 51°53' E 004°25'0 0.0
2018-Feb-10 16:58N 51°53' E 004°25'0 0.0
2018-Feb-10 16:28N 51°53' E 004°25'0 0.0
2018-Feb-10 15:58N 51°53' E 004°25'0 0.0
2018-Feb-10 15:28N 51°53' E 004°25'0 0.0
2018-Feb-10 14:58N 51°53' E 004°25'0 0.0
2018-Feb-10 14:25N 51°53' E 004°25'0 0.0
2018-Feb-10 13:58N 51°53' E 004°25'0 0.0
2018-Feb-10 13:25N 51°53' E 004°25'0 0.0
2018-Feb-10 12:58N 51°53' E 004°25'0 0.7
2018-Feb-10 12:30N 51°53' E 004°25'3 6.5
2018-Feb-10 12:00N 51°54' E 004°19'612.2
2018-Feb-10 11:31N 51°57' E 004°11'714.2
2018-Feb-10 11:00N 51°60' E 004°01'714.4
2018-Feb-10 10:30N 52°01' E 003°49'713.3
2018-Feb-10 09:58N 51°58' E 003°38'1914.4
2018-Feb-10 08:37N 51°52' E 003°08'214.2
2018-Feb-10 08:29N 51°51' E 003°06'2214.8
2018-Feb-10 06:58N 51°41' E 002°33'816.7
2018-Feb-10 06:30N 51°35' E 002°25'816.4
2018-Feb-10 06:01N 51°29' E 002°16'815.7
2018-Feb-10 05:30N 51°23' E 002°08'815.6
2018-Feb-10 05:01N 51°16' E 002°06'815.4
2018-Feb-10 04:31N 51°11' E 001°56'815.3
2018-Feb-10 04:01N 51°07' E 001°46'714.9
2018-Feb-10 03:31N 51°01' E 001°38'814.9
2018-Feb-10 03:00N 50°56' E 001°30'714.1
2018-Feb-10 02:30N 50°50' E 001°24'814.9
2018-Feb-10 01:59N 50°42' E 001°20'5415.4
2018-Feb-09 22:27N 50°19' E 000°03'5415.8
2018-Feb-09 19:01N 50°13' W 001°22'816.2
2018-Feb-09 18:31N 50°12' W 001°34'816.6
2018-Feb-09 18:01N 50°12' W 001°47'3517.4
2018-Feb-09 16:00N 50°09' W 002°41'1817.6
2018-Feb-09 15:00N 50°07' W 003°08'917.5
2018-Feb-09 14:31N 50°05' W 003°22'917.7
2018-Feb-09 14:00N 50°04' W 003°35'917.7
2018-Feb-09 13:30N 50°03' W 003°49'5117.0
2018-Feb-09 10:30N 49°55' W 005°07'14112.9
2018-Feb-08 23:30N 52°14' W 005°51'12616.8
2018-Feb-08 16:00N 54°19' W 005°20'1414.1
2018-Feb-08 15:00N 54°33' W 005°21'1212.2
2018-Feb-08 14:00N 54°43' W 005°33'  

Dump ship's entire track history